createdAt,value
2018-01-21T00:01:57.714Z,18.30
2018-01-21T00:04:26.427Z,16.17
2018-01-21T00:06:54.803Z,20.53
2018-01-21T00:09:23.220Z,18.70
2018-01-21T00:11:51.630Z,22.40
2018-01-21T00:14:20.814Z,17.67
2018-01-21T00:16:49.227Z,22.60
2018-01-21T00:19:17.875Z,15.88
2018-01-21T00:21:46.243Z,12.60
2018-01-21T00:24:14.622Z,20.07
2018-01-21T00:26:43.838Z,16.63
2018-01-21T00:29:13.017Z,17.63
2018-01-21T00:31:41.408Z,19.67
2018-01-21T00:34:09.792Z,18.87
2018-01-21T00:36:38.160Z,16.00
2018-01-21T00:39:06.551Z,16.10
2018-01-21T00:41:34.928Z,13.93
2018-01-21T00:44:04.098Z,10.10
2018-01-21T00:46:32.539Z,10.40
2018-01-21T00:49:00.956Z,11.07
2018-01-21T00:51:29.340Z,11.67
2018-01-21T00:53:57.713Z,10.77
2018-01-21T00:56:26.101Z,24.87
2018-01-21T00:58:54.478Z,14.23
2018-01-21T01:01:22.868Z,13.33
2018-01-21T01:03:51.307Z,13.50
2018-01-21T01:06:19.700Z,17.30
2018-01-21T01:08:48.091Z,12.63
2018-01-21T01:11:16.460Z,12.20
2018-01-21T01:13:44.843Z,12.40
2018-01-21T01:16:13.297Z,13.13
2018-01-21T01:18:41.668Z,12.33
2018-01-21T01:21:10.061Z,13.07
2018-01-21T01:23:38.452Z,11.00
2018-01-21T01:26:06.824Z,17.50
2018-01-21T01:28:35.236Z,12.70
2018-01-21T01:31:04.244Z,11.07
2018-01-21T01:33:33.420Z,11.90
2018-01-21T01:36:01.790Z,11.73
2018-01-21T01:38:30.164Z,13.00
2018-01-21T01:40:58.547Z,18.70
2018-01-21T01:43:26.943Z,14.57
2018-01-21T01:45:56.128Z,10.30
2018-01-21T01:48:24.504Z,11.80
2018-01-21T01:50:52.886Z,13.20
2018-01-21T01:53:21.273Z,10.30
2018-01-21T01:55:50.478Z,10.33
2018-01-21T01:58:19.021Z,10.40
2018-01-21T02:00:47.052Z,8.23
2018-01-21T02:03:15.521Z,12.30
2018-01-21T02:05:44.033Z,12.03
2018-01-21T02:08:12.452Z,10.03
2018-01-21T02:10:40.864Z,12.27
2018-01-21T02:13:09.243Z,17.07
2018-01-21T02:15:37.599Z,13.23
2018-01-21T02:18:06.638Z,18.30
2018-01-21T02:20:34.723Z,19.27
2018-01-21T02:23:03.102Z,11.70
2018-01-21T02:25:31.478Z,17.50
2018-01-21T02:28:00.608Z,16.10
2018-01-21T02:30:29.000Z,17.53
2018-01-21T02:32:58.193Z,21.70
2018-01-21T02:35:27.363Z,21.33
2018-01-21T02:37:55.731Z,13.20
2018-01-21T02:40:24.121Z,23.03
2018-01-21T02:42:52.519Z,14.27
2018-01-21T02:45:22.413Z,28.70
2018-01-21T02:47:51.156Z,17.90
2018-01-21T02:50:19.536Z,14.77
2018-01-21T02:52:47.904Z,17.43
2018-01-21T02:55:16.279Z,20.50
2018-01-21T02:57:45.413Z,16.47
2018-01-21T03:00:14.226Z,18.13
2018-01-21T03:02:42.616Z,27.23
2018-01-21T03:05:10.987Z,17.70
2018-01-21T03:07:39.373Z,14.80
2018-01-21T03:10:07.416Z,19.30
2018-01-21T03:12:36.166Z,19.40
2018-01-21T03:15:04.201Z,18.63
2018-01-21T03:17:32.579Z,15.60
2018-01-21T03:20:00.980Z,14.97
2018-01-21T03:22:29.374Z,15.57
2018-01-21T03:24:57.760Z,18.40
2018-01-21T03:27:26.128Z,19.90
2018-01-21T03:29:54.504Z,16.43
2018-01-21T03:32:22.897Z,16.40
2018-01-21T03:34:51.277Z,15.93
2018-01-21T03:37:19.954Z,14.47
2018-01-21T03:39:48.331Z,15.77
2018-01-21T03:42:16.725Z,12.60
2018-01-21T03:44:45.128Z,12.73
2018-01-21T03:47:13.506Z,14.07
2018-01-21T03:49:41.887Z,13.10
2018-01-21T03:52:10.260Z,12.23
2018-01-21T03:54:38.448Z,11.20
2018-01-21T03:57:08.336Z,12.80
2018-01-21T03:59:36.731Z,12.60
2018-01-21T04:02:05.115Z,11.47
2018-01-21T04:04:33.528Z,12.30
2018-01-21T04:07:01.920Z,12.77
2018-01-21T04:09:30.292Z,13.57
2018-01-21T04:11:58.675Z,12.60
2018-01-21T04:14:28.006Z,11.67
2018-01-21T04:16:56.388Z,11.87
2018-01-21T04:19:24.797Z,10.60
2018-01-21T04:21:53.197Z,12.07
2018-01-21T04:24:21.591Z,10.67
2018-01-21T04:26:49.979Z,10.60
2018-01-21T04:29:18.572Z,10.50
2018-01-21T04:31:46.969Z,10.80
2018-01-21T04:34:15.344Z,8.67
2018-01-21T04:36:43.735Z,9.40
2018-01-21T04:39:12.104Z,10.30
2018-01-21T04:41:40.498Z,9.03
2018-01-21T04:44:08.871Z,9.80
2018-01-21T04:46:37.384Z,11.60
2018-01-21T04:49:06.542Z,11.10
2018-01-21T04:51:34.912Z,9.37
2018-01-21T04:54:03.296Z,10.10
2018-01-21T04:56:31.675Z,11.40
2018-01-21T04:59:00.065Z,10.50
2018-01-21T05:01:28.439Z,10.93
2018-01-21T05:03:56.804Z,7.87
2018-01-21T05:06:25.188Z,10.40
2018-01-21T05:08:53.570Z,11.30
2018-01-21T05:11:21.948Z,8.67
2018-01-21T05:13:50.334Z,10.67
2018-01-21T05:16:19.040Z,8.50
2018-01-21T05:18:48.185Z,8.60
2018-01-21T05:21:16.563Z,8.57
2018-01-21T05:23:44.936Z,10.23
2018-01-21T05:26:13.316Z,8.57
2018-01-21T05:28:41.692Z,9.60
2018-01-21T05:31:10.134Z,9.20
2018-01-21T05:33:39.678Z,9.00
2018-01-21T05:36:08.057Z,9.20
2018-01-21T05:38:36.420Z,8.70
2018-01-21T05:41:04.626Z,9.50
2018-01-21T05:43:32.990Z,8.63
2018-01-21T05:46:01.416Z,9.07
2018-01-21T05:48:30.398Z,7.90
2018-01-21T05:50:58.787Z,8.33
2018-01-21T05:53:27.149Z,9.00
2018-01-21T05:55:55.524Z,7.10
2018-01-21T05:58:23.927Z,9.33
2018-01-21T06:00:53.447Z,8.87
2018-01-21T06:03:21.848Z,9.77
2018-01-21T06:05:50.212Z,9.20
2018-01-21T06:08:18.931Z,9.43
2018-01-21T06:10:47.167Z,9.20
2018-01-21T06:13:15.536Z,10.37
2018-01-21T06:15:44.675Z,8.90
2018-01-21T06:18:14.338Z,8.50
2018-01-21T06:20:43.300Z,9.83
2018-01-21T06:23:11.668Z,8.70
2018-01-21T06:25:40.056Z,8.93
2018-01-21T06:28:08.442Z,10.73
2018-01-21T06:30:36.816Z,6.97
2018-01-21T06:33:05.205Z,8.73
2018-01-21T06:35:33.572Z,9.33
2018-01-21T06:38:01.988Z,8.10
2018-01-21T06:40:30.363Z,9.37
2018-01-21T06:42:59.508Z,8.50
2018-01-21T06:45:27.885Z,8.50
2018-01-21T06:47:55.924Z,8.30
2018-01-21T06:50:24.302Z,8.33
2018-01-21T06:52:52.673Z,8.40
2018-01-21T06:55:21.097Z,9.40
2018-01-21T06:57:49.140Z,7.87
2018-01-21T07:00:17.528Z,8.63
2018-01-21T07:02:45.911Z,8.43
2018-01-21T07:05:14.270Z,7.43
2018-01-21T07:07:42.656Z,8.17
2018-01-21T07:10:11.023Z,7.20
2018-01-21T07:12:39.405Z,7.23
2018-01-21T07:15:07.759Z,7.20
2018-01-21T07:17:36.920Z,8.80
2018-01-21T07:20:04.631Z,9.27
2018-01-21T07:22:32.993Z,9.70
2018-01-21T07:25:02.134Z,9.80
2018-01-21T07:27:30.523Z,7.80
2018-01-21T07:29:58.924Z,9.17
2018-01-21T07:32:27.303Z,10.03
2018-01-21T07:34:55.669Z,10.80
2018-01-21T07:37:24.077Z,8.70
2018-01-21T07:39:53.224Z,8.80
2018-01-21T07:42:21.662Z,10.00
2018-01-21T07:44:50.045Z,10.80
2018-01-21T07:47:18.408Z,9.07
2018-01-21T07:49:47.583Z,11.43
2018-01-21T07:52:15.960Z,10.50
2018-01-21T07:54:44.357Z,11.53
2018-01-21T07:57:13.486Z,8.50
2018-01-21T07:59:41.839Z,8.87
2018-01-21T08:02:10.288Z,10.13
2018-01-21T08:04:38.662Z,8.73
2018-01-21T08:07:07.070Z,10.40
2018-01-21T08:09:36.252Z,8.67
2018-01-21T08:12:04.619Z,9.77
2018-01-21T08:14:33.034Z,11.17
2018-01-21T08:17:01.592Z,11.33
2018-01-21T08:19:29.992Z,11.00
2018-01-21T08:21:59.156Z,9.73
2018-01-21T08:24:27.524Z,11.10
2018-01-21T08:26:55.912Z,10.13
2018-01-21T08:29:24.279Z,9.47
2018-01-21T08:31:52.793Z,10.67
2018-01-21T08:40:12.541Z,9.70
2018-01-21T08:42:42.709Z,8.90
2018-01-21T08:45:11.171Z,8.77
2018-01-21T08:47:40.146Z,9.73
2018-01-21T08:50:08.531Z,10.33
2018-01-21T08:52:36.591Z,9.63
2018-01-21T08:55:04.963Z,11.10
2018-01-21T08:57:33.348Z,10.90
2018-01-21T09:00:01.727Z,11.93
2018-01-21T09:02:30.199Z,11.40
2018-01-21T09:04:58.591Z,12.43
2018-01-21T09:07:26.981Z,13.03
2018-01-21T09:09:55.489Z,11.20
2018-01-21T09:12:23.879Z,13.90
2018-01-21T09:14:53.039Z,11.80
2018-01-21T09:17:21.537Z,12.60
2018-01-21T09:19:50.715Z,12.57
2018-01-21T09:22:19.107Z,11.63
2018-01-21T09:24:47.515Z,11.30
2018-01-21T09:27:16.660Z,11.80
2018-01-21T09:29:45.050Z,10.57
2018-01-21T09:32:13.804Z,14.20
2018-01-21T09:34:42.293Z,12.43
2018-01-21T09:37:10.657Z,12.10
2018-01-21T09:39:39.181Z,12.27
2018-01-21T09:42:07.632Z,12.80
2018-01-21T09:44:37.031Z,14.27
2018-01-21T09:47:05.424Z,11.80
2018-01-21T09:49:33.918Z,14.33
2018-01-21T09:52:02.299Z,11.70
2018-01-21T09:54:30.658Z,12.73
2018-01-21T09:56:59.061Z,14.70
2018-01-21T09:59:28.221Z,12.60
2018-01-21T10:01:57.562Z,14.50
2018-01-21T10:04:29.446Z,10.97
2018-01-21T10:07:02.087Z,12.10
2018-01-21T10:09:30.455Z,12.43
2018-01-21T10:11:59.511Z,13.30
2018-01-21T10:14:27.913Z,10.03
2018-01-21T10:16:56.328Z,10.53
2018-01-21T10:19:24.818Z,11.00
2018-01-21T10:21:53.190Z,12.63
2018-01-21T10:24:21.631Z,12.77
2018-01-21T10:26:49.996Z,11.00
2018-01-21T10:29:18.399Z,12.10
2018-01-21T10:31:46.881Z,13.03
2018-01-21T10:34:15.247Z,14.07
2018-01-21T10:36:43.630Z,13.03
2018-01-21T10:39:12.002Z,13.53
2018-01-21T10:41:40.423Z,6.43
2018-01-21T10:44:08.955Z,11.73
2018-01-21T10:46:37.477Z,11.33
2018-01-21T10:49:05.925Z,11.23
2018-01-21T10:51:34.299Z,11.47
2018-01-21T10:54:02.666Z,14.77
2018-01-21T10:56:31.043Z,12.90
2018-01-21T10:58:59.244Z,10.53
2018-01-21T11:01:27.612Z,14.00
2018-01-21T11:03:56.047Z,12.67
2018-01-21T11:06:24.555Z,11.07
2018-01-21T11:08:52.739Z,12.70
2018-01-21T11:11:21.131Z,12.23
2018-01-21T11:13:49.510Z,10.93
2018-01-21T11:16:17.981Z,11.47
2018-01-21T11:18:46.348Z,10.67
2018-01-21T11:21:14.746Z,11.37
2018-01-21T11:23:43.102Z,8.77
2018-01-21T11:26:11.527Z,11.23
2018-01-21T11:28:39.919Z,11.50
2018-01-21T11:31:08.293Z,12.90
2018-01-21T11:33:36.695Z,10.47
2018-01-21T11:36:05.832Z,11.60
2018-01-21T11:38:34.223Z,12.07
2018-01-21T11:41:02.604Z,11.50
2018-01-21T11:43:30.983Z,10.57
2018-01-21T11:45:59.458Z,8.00
2018-01-21T11:48:27.823Z,9.97
2018-01-21T11:50:56.212Z,11.17
2018-01-21T11:53:24.591Z,11.00
2018-01-21T11:55:52.992Z,11.00
2018-01-21T11:58:21.357Z,11.37
2018-01-21T12:00:49.748Z,10.37
2018-01-21T12:03:19.739Z,7.87
2018-01-21T12:05:48.111Z,12.77
2018-01-21T12:08:16.564Z,9.80
2018-01-21T12:10:45.132Z,10.10
2018-01-21T12:13:13.558Z,9.80
2018-01-21T12:15:41.906Z,8.10
2018-01-21T12:18:10.283Z,7.70
2018-01-21T12:20:38.680Z,9.90
2018-01-21T12:23:07.048Z,9.00
2018-01-21T12:25:35.463Z,7.90
2018-01-21T12:28:05.403Z,10.47
2018-01-21T12:30:34.614Z,7.73
2018-01-21T12:33:03.818Z,8.70
2018-01-21T12:35:32.213Z,7.90
2018-01-21T12:38:01.972Z,7.33
2018-01-21T12:40:30.511Z,8.90
2018-01-21T12:42:59.718Z,6.63
2018-01-21T12:45:29.666Z,8.20
2018-01-21T12:47:58.079Z,7.87
2018-01-21T12:50:26.520Z,8.17
2018-01-21T12:52:55.894Z,9.60
2018-01-21T12:55:24.289Z,8.07
2018-01-21T12:57:52.849Z,8.20
2018-01-21T13:00:21.014Z,8.13
2018-01-21T13:02:49.400Z,7.50
2018-01-21T13:05:17.823Z,7.67
2018-01-21T13:07:46.223Z,9.37
2018-01-21T13:10:14.756Z,8.37
2018-01-21T13:12:43.938Z,7.60
2018-01-21T13:15:12.431Z,7.17
2018-01-21T13:17:41.288Z,7.97
2018-01-21T13:20:09.709Z,8.00
2018-01-21T13:22:38.200Z,8.23
2018-01-21T13:25:07.520Z,7.70
2018-01-21T13:27:36.855Z,6.47
2018-01-21T13:30:05.270Z,7.40
2018-01-21T13:32:34.444Z,6.63
2018-01-21T13:35:03.924Z,5.80
2018-01-21T13:37:33.075Z,7.07
2018-01-21T13:40:01.540Z,4.70
2018-01-21T13:42:29.988Z,4.60
2018-01-21T13:44:59.931Z,5.93
2018-01-21T13:47:28.304Z,5.43
2018-01-21T13:49:56.895Z,5.63
2018-01-21T13:52:26.480Z,8.03
2018-01-21T13:54:55.082Z,6.17
2018-01-21T13:57:24.403Z,4.70
2018-01-21T13:59:52.866Z,7.20
2018-01-21T14:02:21.235Z,7.13
2018-01-21T14:04:49.803Z,6.73
2018-01-21T14:07:18.257Z,7.77
2018-01-21T14:09:47.453Z,6.37
2018-01-21T14:12:15.828Z,6.57
2018-01-21T14:14:44.250Z,5.93
2018-01-21T14:17:12.615Z,4.93
2018-01-21T14:19:41.030Z,6.40
2018-01-21T14:22:09.400Z,5.20
2018-01-21T14:24:38.036Z,7.47
2018-01-21T14:27:06.182Z,7.83
2018-01-21T14:29:34.579Z,8.03
2018-01-21T14:32:03.064Z,7.40
2018-01-21T14:34:32.300Z,8.50
2018-01-21T14:37:00.917Z,6.60
2018-01-21T14:39:29.365Z,7.93
2018-01-21T14:41:57.800Z,9.27
2018-01-21T14:44:26.492Z,6.00
2018-01-21T14:46:55.699Z,3.30
2018-01-21T14:49:24.285Z,6.60
2018-01-21T14:51:53.424Z,6.03
2018-01-21T14:54:21.636Z,5.77
2018-01-21T14:56:50.004Z,5.20
2018-01-21T14:59:19.325Z,3.20
2018-01-21T15:01:47.765Z,5.67
2018-01-21T15:04:16.139Z,5.80
2018-01-21T15:06:44.600Z,4.57
2018-01-21T15:09:13.044Z,6.27
2018-01-21T15:11:42.477Z,5.70
2018-01-21T15:14:10.962Z,4.67
2018-01-21T15:16:39.334Z,4.83
2018-01-21T15:19:07.806Z,5.10
2018-01-21T15:21:36.240Z,4.50
2018-01-21T15:24:04.636Z,5.67
2018-01-21T15:26:34.317Z,3.60
2018-01-21T15:29:03.051Z,3.83
2018-01-21T15:31:32.698Z,4.93
2018-01-21T15:34:01.067Z,5.20
2018-01-21T15:36:29.447Z,5.00
2018-01-21T15:38:58.024Z,4.60
2018-01-21T15:41:26.421Z,4.30
2018-01-21T15:43:54.779Z,3.77
2018-01-21T15:46:23.204Z,4.53
2018-01-21T15:48:51.566Z,3.73
2018-01-21T15:51:20.016Z,6.30
2018-01-21T15:53:48.426Z,4.60
2018-01-21T15:56:16.785Z,4.87
2018-01-21T15:58:44.970Z,4.80
2018-01-21T16:01:13.422Z,4.40
2018-01-21T16:03:41.848Z,6.87
2018-01-21T16:06:10.239Z,4.23
2018-01-21T16:08:38.613Z,5.10
2018-01-21T16:11:06.807Z,4.87
2018-01-21T16:13:35.962Z,4.70
2018-01-21T16:16:04.353Z,5.50
2018-01-21T16:18:32.718Z,3.63
2018-01-21T16:21:01.121Z,4.43
2018-01-21T16:23:29.489Z,6.30
2018-01-21T16:25:57.861Z,5.00
2018-01-21T16:28:26.239Z,5.57
2018-01-21T16:30:54.616Z,2.90
2018-01-21T16:33:23.016Z,4.77
2018-01-21T16:35:52.199Z,4.50
2018-01-21T16:38:31.928Z,5.23
2018-01-21T16:41:01.083Z,5.10
2018-01-21T16:43:29.878Z,5.60
2018-01-21T16:45:58.263Z,6.60
2018-01-21T16:48:27.711Z,6.47
2018-01-21T16:50:56.921Z,6.23
2018-01-21T16:53:26.056Z,6.40
2018-01-21T16:55:54.509Z,7.60
2018-01-21T16:58:23.678Z,7.87
2018-01-21T17:00:52.100Z,7.37
2018-01-21T17:03:20.515Z,5.80
2018-01-21T17:05:48.971Z,7.93
2018-01-21T17:08:17.407Z,6.80
2018-01-21T17:10:45.803Z,7.27
2018-01-21T17:13:14.351Z,5.90
2018-01-21T17:15:42.755Z,7.70
2018-01-21T17:18:11.908Z,6.33
2018-01-21T17:20:40.510Z,6.73
2018-01-21T17:23:09.257Z,6.53
2018-01-21T17:25:37.686Z,6.27
2018-01-21T17:28:06.861Z,4.73
2018-01-21T17:30:35.252Z,7.17
2018-01-21T17:33:03.696Z,6.87
2018-01-21T17:35:32.130Z,8.70
2018-01-21T17:38:01.398Z,6.23
2018-01-21T17:40:30.133Z,6.70
2018-01-21T17:42:58.503Z,8.43
2018-01-21T17:45:27.669Z,6.23
2018-01-21T17:47:56.107Z,7.43
2018-01-21T17:50:24.507Z,5.70
2018-01-21T17:52:52.957Z,5.10
2018-01-21T17:55:21.360Z,5.27
2018-01-21T17:57:50.562Z,6.53
2018-01-21T18:00:18.771Z,6.90
2018-01-21T18:02:47.935Z,7.20
2018-01-21T18:05:16.373Z,7.50
2018-01-21T18:07:45.491Z,4.10
2018-01-21T18:10:13.894Z,6.03
2018-01-21T18:12:42.316Z,4.77
2018-01-21T18:15:10.716Z,5.53
2018-01-21T18:17:39.157Z,5.30
2018-01-21T18:20:07.543Z,5.20
2018-01-21T18:22:36.727Z,5.17
2018-01-21T18:25:04.774Z,4.40
2018-01-21T18:27:33.212Z,5.47
2018-01-21T18:30:02.358Z,6.13
2018-01-21T18:32:31.021Z,5.60
2018-01-21T18:34:59.390Z,5.30
2018-01-21T18:37:27.912Z,5.60
2018-01-21T18:39:56.304Z,5.00
2018-01-21T18:42:24.675Z,5.70
2018-01-21T18:44:53.058Z,6.20
2018-01-21T18:47:21.459Z,5.47
2018-01-21T18:49:50.678Z,5.93
2018-01-21T18:52:18.855Z,5.77
2018-01-21T18:54:47.216Z,5.27
2018-01-21T18:57:16.427Z,4.30
2018-01-21T18:59:44.788Z,5.17
2018-01-21T19:02:13.938Z,5.03
2018-01-21T19:04:42.303Z,5.50
2018-01-21T19:07:10.684Z,5.50
2018-01-21T19:09:39.052Z,5.10
2018-01-21T19:12:07.449Z,4.40
2018-01-21T19:14:35.816Z,5.27
2018-01-21T19:17:04.203Z,5.00
2018-01-21T19:19:32.618Z,5.37
2018-01-21T19:22:01.427Z,6.60
2018-01-21T19:24:30.608Z,4.70
2018-01-21T19:26:59.089Z,3.70
2018-01-21T19:29:29.762Z,2.00
2018-01-21T19:31:57.959Z,4.97
2018-01-21T19:34:26.688Z,5.90
2018-01-21T19:36:55.651Z,5.60
2018-01-21T19:39:36.683Z,1.50
2018-01-21T19:42:10.324Z,4.33
2018-01-21T19:44:39.589Z,4.60
2018-01-21T19:47:08.489Z,4.13
2018-01-21T19:49:36.861Z,5.03
2018-01-21T19:52:05.260Z,6.17
2018-01-21T19:54:33.622Z,4.40
2018-01-21T19:57:02.003Z,2.70
2018-01-21T19:59:30.427Z,3.70
2018-01-21T20:01:58.928Z,2.70
2018-01-21T20:04:27.372Z,3.43
2018-01-21T20:06:55.549Z,1.50
2018-01-21T20:09:23.938Z,4.83
2018-01-21T20:11:52.325Z,3.23
2018-01-21T20:14:21.514Z,2.77
2018-01-21T20:16:49.895Z,2.30
2018-01-21T20:19:19.065Z,2.90
2018-01-21T20:21:47.455Z,6.10
2018-01-21T20:24:15.818Z,4.37
2018-01-21T20:26:44.190Z,2.60
2018-01-21T20:29:12.666Z,3.83
2018-01-21T20:31:41.309Z,3.70
2018-01-21T20:34:10.436Z,2.03
2018-01-21T20:36:38.802Z,3.30
2018-01-21T20:39:07.269Z,5.10
2018-01-21T20:41:35.771Z,3.00
2018-01-21T20:44:04.144Z,4.93
2018-01-21T20:46:32.545Z,2.93
2018-01-21T20:49:01.215Z,2.13
2018-01-21T20:51:35.049Z,1.77
2018-01-21T20:54:09.413Z,2.10
2018-01-21T20:56:38.582Z,1.90
2018-01-21T20:59:06.944Z,2.97
2018-01-21T21:01:35.028Z,0.50
2018-01-21T21:04:03.428Z,1.70
2018-01-21T21:06:32.580Z,2.67
2018-01-21T21:09:00.939Z,2.20
2018-01-21T21:11:29.602Z,0.47
2018-01-21T21:13:57.970Z,2.70
2018-01-21T21:16:27.096Z,0.30
2018-01-21T21:18:55.494Z,1.50
2018-01-21T21:21:24.652Z,0.80
2018-01-21T21:23:53.036Z,1.50
2018-01-21T21:26:21.404Z,0.97
2018-01-21T21:28:50.024Z,0.67
2018-01-21T21:31:18.211Z,1.50
2018-01-21T21:33:46.635Z,1.67
2018-01-21T21:36:15.045Z,2.30
2018-01-21T21:38:43.408Z,2.87
2018-01-21T21:41:11.845Z,0.70
2018-01-21T21:43:40.212Z,1.20
2018-01-21T21:46:08.588Z,1.70
2018-01-21T21:48:36.955Z,1.80
2018-01-21T21:51:05.335Z,2.60
2018-01-21T21:53:34.519Z,1.20
2018-01-21T21:56:02.895Z,1.93
2018-01-21T21:58:31.279Z,1.57
2018-01-21T22:00:59.656Z,2.10
2018-01-21T22:03:28.802Z,1.83
2018-01-21T22:05:57.935Z,1.10
2018-01-21T22:08:26.606Z,1.27
2018-01-21T22:10:55.916Z,1.70
2018-01-21T22:13:24.288Z,1.00
2018-01-21T22:15:52.003Z,1.13
2018-01-21T22:18:20.363Z,2.50
2018-01-21T22:20:48.796Z,0.93
2018-01-21T22:23:17.158Z,0.83
2018-01-21T22:25:46.328Z,0.60
2018-01-21T22:28:14.700Z,1.00
2018-01-21T22:30:43.079Z,1.37
2018-01-21T22:33:11.463Z,1.83
2018-01-21T22:35:39.832Z,1.13
2018-01-21T22:38:08.207Z,1.80
2018-01-21T22:40:36.616Z,1.60
2018-01-21T22:43:05.048Z,1.53
2018-01-21T22:45:33.554Z,0.93
2018-01-21T22:48:01.940Z,1.40
2018-01-21T22:50:30.326Z,1.13
2018-01-21T22:52:58.691Z,1.07
2018-01-21T22:55:27.078Z,0.70
2018-01-21T22:57:55.447Z,1.00
2018-01-21T23:00:23.888Z,0.67
2018-01-21T23:02:52.254Z,1.00
2018-01-21T23:05:20.656Z,0.77
2018-01-21T23:07:49.028Z,0.57
2018-01-21T23:10:17.384Z,0.87
2018-01-21T23:12:45.753Z,0.53
2018-01-21T23:15:14.879Z,0.60
2018-01-21T23:17:43.255Z,0.63
2018-01-21T23:20:11.623Z,0.63
2018-01-21T23:22:39.988Z,0.80
2018-01-21T23:25:08.395Z,0.40
2018-01-21T23:27:36.779Z,0.70
2018-01-21T23:30:05.148Z,0.70
2018-01-21T23:32:33.518Z,0.50
2018-01-21T23:35:01.909Z,0.40
2018-01-21T23:37:30.263Z,0.50
2018-01-21T23:39:58.619Z,0.30
2018-01-21T23:42:27.765Z,0.33
2018-01-21T23:44:56.131Z,0.50
2018-01-21T23:47:24.515Z,0.60
2018-01-21T23:49:52.898Z,0.40
2018-01-21T23:52:21.275Z,0.70
2018-01-21T23:54:49.641Z,0.50
2018-01-21T23:57:18.007Z,0.50
2018-01-21T23:59:46.043Z,0.60
